Bethany, Canada
Current Conditions -  °F | °C
As of 6:00 AM on Saturday 25 Oct 2014 (Local Time) from CYPQ Reporting Station
Overcast Overcast  
Wind Chill: 48°   Ceiling: 3900
Heat Index: 48°   Visibility: 9mi
Dew Point: 45°   Wind: 3mph
Humidity: 87%   Direction: 180°S
Pressure: 29.79"   Gusts: NA
Location:  44.18°N, 78.57°W
Report Text: CYPQ 251000Z AUTO 18003KT 9SM OVC039 09/07 A2979 RMK SLP092
Loading
Personal Weather Stations






























Interactive Weather Map
Tropical Storm Tracking
New forecast layout! Learn more

10-Day Weather Forecast

Advertisements
Track Severe Weather on mobile